createdAt,value
2018-09-22T00:01:53.540Z,12.33
2018-09-22T00:04:24.128Z,12.30
2018-09-22T00:06:53.064Z,12.26
2018-09-22T00:09:22.219Z,12.21
2018-09-22T00:11:52.185Z,12.26
2018-09-22T00:14:21.417Z,12.26
2018-09-22T00:16:50.715Z,12.19
2018-09-22T00:19:20.040Z,12.15
2018-09-22T00:21:49.396Z,12.12
2018-09-22T00:24:18.899Z,12.05
2018-09-22T00:26:48.268Z,12.03
2018-09-22T00:29:17.494Z,12.02
2018-09-22T00:31:46.771Z,11.96
2018-09-22T00:34:15.656Z,11.95
2018-09-22T00:36:44.531Z,11.92
2018-09-22T00:39:13.420Z,11.92
2018-09-22T00:41:42.300Z,11.92
2018-09-22T00:44:11.788Z,11.89
2018-09-22T00:46:40.783Z,11.82
2018-09-22T00:49:09.788Z,11.80
2018-09-22T00:51:38.657Z,11.83
2018-09-22T00:54:07.497Z,11.86
2018-09-22T00:56:36.402Z,11.83
2018-09-22T00:59:05.744Z,11.76
2018-09-22T01:01:35.588Z,11.74
2018-09-22T01:04:04.892Z,11.75
2018-09-22T01:06:34.296Z,11.74
2018-09-22T01:09:04.051Z,11.78
2018-09-22T01:11:33.191Z,11.74
2018-09-22T01:14:02.063Z,11.80
2018-09-22T01:16:30.947Z,11.80
2018-09-22T01:18:59.803Z,11.82
2018-09-22T01:21:28.664Z,11.82
2018-09-22T01:23:57.604Z,11.83
2018-09-22T01:26:28.499Z,11.82
2018-09-22T01:28:57.456Z,11.81
2018-09-22T01:31:26.322Z,11.82
2018-09-22T01:33:55.607Z,11.78
2018-09-22T01:36:24.886Z,11.83
2018-09-22T01:38:54.163Z,11.85
2018-09-22T01:41:23.472Z,11.82
2018-09-22T01:43:52.810Z,11.84
2018-09-22T01:46:22.115Z,11.83
2018-09-22T01:48:50.965Z,11.83
2018-09-22T01:51:19.836Z,11.83
2018-09-22T01:53:48.795Z,11.82
2018-09-22T01:56:20.698Z,11.81
2018-09-22T01:58:49.548Z,11.84
2018-09-22T02:01:18.404Z,11.76
2018-09-22T02:03:47.257Z,11.79
2018-09-22T02:06:16.127Z,11.81
2018-09-22T02:08:45.163Z,11.75
2018-09-22T02:11:14.191Z,11.78
2018-09-22T02:13:43.088Z,11.74
2018-09-22T02:16:11.947Z,11.66
2018-09-22T02:18:40.826Z,11.60
2018-09-22T02:21:09.712Z,11.57
2018-09-22T02:23:38.673Z,11.53
2018-09-22T02:26:07.564Z,11.48
2018-09-22T02:28:36.816Z,11.46
2018-09-22T02:31:06.059Z,11.54
2018-09-22T02:33:34.957Z,11.49
2018-09-22T02:36:03.848Z,11.43
2018-09-22T02:38:32.719Z,11.44
2018-09-22T02:41:01.622Z,11.35
2018-09-22T02:43:30.499Z,11.32
2018-09-22T02:45:59.391Z,11.29
2018-09-22T02:48:28.302Z,11.24
2018-09-22T02:50:57.204Z,11.21
2018-09-22T02:53:26.275Z,11.18
2018-09-22T02:55:55.171Z,11.15
2018-09-22T02:58:24.058Z,11.12
2018-09-22T03:00:53.218Z,11.10
2018-09-22T03:03:22.125Z,11.04
2018-09-22T03:05:51.016Z,11.03
2018-09-22T03:08:20.120Z,11.03
2018-09-22T03:10:49.077Z,10.99
2018-09-22T03:13:17.952Z,10.90
2018-09-22T03:15:46.834Z,10.91
2018-09-22T03:18:15.723Z,10.89
2018-09-22T03:20:44.645Z,10.89
2018-09-22T03:23:13.534Z,10.91
2018-09-22T03:25:42.412Z,10.92
2018-09-22T03:28:11.304Z,10.89
2018-09-22T03:30:40.208Z,10.92
2018-09-22T03:33:09.093Z,10.90
2018-09-22T03:35:38.117Z,10.87
2018-09-22T03:38:07.032Z,10.84
2018-09-22T03:40:35.903Z,10.84
2018-09-22T03:43:04.907Z,10.82
2018-09-22T03:45:33.951Z,10.83
2018-09-22T03:48:02.800Z,10.87
2018-09-22T03:50:31.692Z,10.90
2018-09-22T03:53:00.561Z,10.87
2018-09-22T03:55:29.452Z,10.83
2018-09-22T03:57:58.334Z,10.79
2018-09-22T04:00:27.204Z,10.76
2018-09-22T04:02:56.263Z,10.78
2018-09-22T04:05:25.279Z,10.82
2018-09-22T04:07:54.284Z,10.76
2018-09-22T04:10:23.365Z,10.78
2018-09-22T04:12:52.239Z,10.78
2018-09-22T04:15:21.128Z,10.77
2018-09-22T04:17:50.020Z,10.74
2018-09-22T04:20:18.936Z,10.75
2018-09-22T04:22:48.300Z,10.75
2018-09-22T04:25:17.308Z,10.76
2018-09-22T04:27:46.155Z,10.79
2018-09-22T04:30:15.044Z,10.80
2018-09-22T04:32:43.920Z,10.86
2018-09-22T04:35:12.803Z,10.80
2018-09-22T04:37:41.668Z,10.79
2018-09-22T04:40:10.572Z,10.77
2018-09-22T04:42:39.460Z,10.74
2018-09-22T04:45:08.400Z,10.73
2018-09-22T04:47:37.327Z,10.72
2018-09-22T04:50:06.559Z,10.69
2018-09-22T04:52:35.455Z,10.71
2018-09-22T04:55:04.399Z,10.64
2018-09-22T04:57:33.369Z,10.64
2018-09-22T05:00:02.248Z,10.64
2018-09-22T05:02:31.130Z,10.59
2018-09-22T05:05:00.028Z,10.60
2018-09-22T05:07:28.920Z,10.63
2018-09-22T05:09:57.836Z,10.63
2018-09-22T05:12:27.923Z,10.59
2018-09-22T05:14:56.861Z,10.59
2018-09-22T05:17:25.928Z,10.57
2018-09-22T05:19:54.795Z,10.64
2018-09-22T05:22:23.701Z,10.60
2018-09-22T05:24:52.630Z,10.61
2018-09-22T05:27:21.500Z,10.59
2018-09-22T05:29:50.469Z,10.62
2018-09-22T05:32:19.345Z,10.65
2018-09-22T05:34:48.571Z,10.68
2018-09-22T05:37:17.768Z,10.69
2018-09-22T05:39:50.025Z,10.69
2018-09-22T05:42:19.348Z,10.68
2018-09-22T05:44:50.967Z,10.67
2018-09-22T05:47:19.906Z,10.80
2018-09-22T05:49:48.776Z,10.73
2018-09-22T05:52:17.644Z,10.75
2018-09-22T05:54:46.515Z,10.80
2018-09-22T05:57:15.504Z,10.86
2018-09-22T05:59:44.476Z,10.87
2018-09-22T06:02:13.381Z,10.85
2018-09-22T06:04:42.364Z,10.94
2018-09-22T06:07:11.315Z,10.92
2018-09-22T06:09:40.396Z,11.03
2018-09-22T06:12:09.280Z,11.09
2018-09-22T06:14:38.172Z,11.12
2018-09-22T06:17:07.075Z,11.17
2018-09-22T06:19:35.952Z,11.23
2018-09-22T06:22:04.856Z,11.32
2018-09-22T06:24:33.869Z,11.40
2018-09-22T06:27:02.754Z,11.42
2018-09-22T06:29:31.649Z,11.52
2018-09-22T06:32:00.528Z,11.43
2018-09-22T06:34:29.395Z,11.48
2018-09-22T06:36:58.280Z,11.51
2018-09-22T06:39:27.246Z,11.48
2018-09-22T06:41:59.491Z,11.51
2018-09-22T06:44:28.396Z,11.52
2018-09-22T06:46:57.246Z,11.61
2018-09-22T06:49:26.504Z,11.68
2018-09-22T06:51:55.376Z,11.81
2018-09-22T06:54:25.441Z,11.81
2018-09-22T06:56:54.316Z,11.87
2018-09-22T06:59:23.239Z,11.84
2018-09-22T07:01:52.219Z,11.89
2018-09-22T07:04:21.148Z,12.01
2018-09-22T07:06:50.022Z,12.02
2018-09-22T07:09:18.880Z,12.21
2018-09-22T07:11:47.765Z,12.20
2018-09-22T07:14:16.623Z,12.57
2018-09-22T07:16:45.538Z,12.78
2018-09-22T07:19:14.484Z,13.02
2018-09-22T07:21:48.820Z,13.54
2018-09-22T07:24:17.692Z,13.34
2018-09-22T07:26:46.564Z,13.91
2018-09-22T07:29:15.475Z,14.30
2018-09-22T07:31:44.725Z,13.76
2018-09-22T07:34:13.943Z,13.76
2018-09-22T07:36:43.228Z,13.84
2018-09-22T07:39:13.010Z,13.67
2018-09-22T07:41:42.396Z,13.44
2018-09-22T07:44:11.971Z,13.41
2018-09-22T07:46:41.003Z,13.21
2018-09-22T07:49:10.276Z,13.36
2018-09-22T07:51:39.789Z,13.27
2018-09-22T07:54:09.231Z,13.56
2018-09-22T07:56:38.229Z,13.65
2018-09-22T07:59:07.148Z,14.03
2018-09-22T08:01:36.082Z,14.24
2018-09-22T08:04:07.082Z,14.44
2018-09-22T08:06:36.023Z,14.19
2018-09-22T08:09:06.753Z,13.93
2018-09-22T08:11:37.559Z,13.68
2018-09-22T08:14:08.536Z,13.85
2018-09-22T08:16:41.625Z,13.64
2018-09-22T08:19:10.936Z,13.58
2018-09-22T08:21:43.465Z,13.27
2018-09-22T08:24:15.714Z,13.43
2018-09-22T08:26:44.886Z,13.45
2018-09-22T08:29:14.176Z,13.60
2018-09-22T08:31:44.284Z,13.60
2018-09-22T08:34:13.672Z,13.53
2018-09-22T08:36:42.956Z,13.75
2018-09-22T08:39:12.568Z,14.15
2018-09-22T08:41:41.872Z,14.10
2018-09-22T08:44:10.819Z,14.24
2018-09-22T08:46:39.699Z,14.55
2018-09-22T08:49:08.566Z,14.86
2018-09-22T08:51:37.485Z,14.68
2018-09-22T08:54:06.539Z,14.48
2018-09-22T08:56:35.426Z,14.55
2018-09-22T08:59:04.398Z,14.38
2018-09-22T09:01:33.367Z,14.36
2018-09-22T09:04:02.252Z,14.56
2018-09-22T09:06:31.241Z,14.78
2018-09-22T09:09:00.116Z,14.64
2018-09-22T09:11:29.734Z,14.49
2018-09-22T09:13:59.032Z,14.44
2018-09-22T09:16:27.920Z,14.48
2018-09-22T09:18:56.785Z,14.53
2018-09-22T09:21:25.651Z,14.71
2018-09-22T09:23:54.668Z,14.94
2018-09-22T09:26:25.961Z,15.03
2018-09-22T09:28:54.888Z,14.92
2018-09-22T09:31:23.992Z,15.11
2018-09-22T09:33:52.865Z,15.32
2018-09-22T09:36:22.953Z,15.27
2018-09-22T09:38:57.086Z,14.95
2018-09-22T09:41:25.948Z,15.10
2018-09-22T09:43:54.889Z,15.06
2018-09-22T09:46:23.868Z,15.19
2018-09-22T09:48:52.839Z,15.46
2018-09-22T09:51:21.732Z,15.85
2018-09-22T09:53:50.692Z,15.23
2018-09-22T09:56:19.996Z,15.36
2018-09-22T09:58:48.894Z,15.89
2018-09-22T10:01:17.827Z,15.78
2018-09-22T10:03:46.780Z,16.28
2018-09-22T10:06:15.677Z,16.01
2018-09-22T10:08:44.631Z,15.63
2018-09-22T10:11:13.536Z,15.97
2018-09-22T10:13:42.407Z,16.35
2018-09-22T10:16:11.285Z,16.61
2018-09-22T10:18:40.185Z,16.25
2018-09-22T10:21:09.115Z,16.39
2018-09-22T10:23:37.988Z,16.61
2018-09-22T10:26:13.499Z,16.42
2018-09-22T10:28:42.479Z,16.30
2018-09-22T10:31:11.468Z,16.08
2018-09-22T10:33:40.428Z,15.87
2018-09-22T10:36:09.325Z,16.08
2018-09-22T10:38:38.187Z,15.85
2018-09-22T10:41:07.191Z,15.89
2018-09-22T10:43:36.051Z,16.00
2018-09-22T10:46:04.956Z,15.84
2018-09-22T10:48:33.862Z,15.57
2018-09-22T10:51:02.793Z,15.19
2018-09-22T10:53:31.675Z,14.99
2018-09-22T10:56:00.564Z,15.40
2018-09-22T10:58:29.707Z,15.23
2018-09-22T11:00:58.573Z,15.54
2018-09-22T11:03:27.512Z,15.76
2018-09-22T11:05:56.495Z,16.04
2018-09-22T11:08:25.512Z,16.10
2018-09-22T11:10:54.385Z,16.41
2018-09-22T11:13:23.324Z,16.18
2018-09-22T11:15:52.208Z,16.05
2018-09-22T11:18:21.055Z,16.17
2018-09-22T11:20:49.902Z,16.34
2018-09-22T11:23:18.775Z,16.25
2018-09-22T11:25:47.710Z,16.30
2018-09-22T11:28:16.563Z,16.57
2018-09-22T11:30:45.480Z,16.62
2018-09-22T11:33:14.496Z,16.29
2018-09-22T11:35:43.384Z,16.18
2018-09-22T11:38:12.292Z,16.01
2018-09-22T11:40:41.160Z,16.57
2018-09-22T11:43:10.138Z,17.25
2018-09-22T11:45:39.317Z,17.72
2018-09-22T11:48:08.458Z,18.08
2018-09-22T11:50:37.453Z,18.69
2018-09-22T11:53:07.021Z,18.80
2018-09-22T11:55:36.096Z,18.91
2018-09-22T11:58:05.158Z,18.65
2018-09-22T12:00:34.100Z,18.64
2018-09-22T12:03:02.951Z,19.34
2018-09-22T12:05:31.820Z,19.71
2018-09-22T12:08:00.695Z,19.05
2018-09-22T12:10:29.590Z,19.43
2018-09-22T12:12:58.529Z,19.21
2018-09-22T12:15:27.552Z,18.94
2018-09-22T12:17:56.477Z,18.63
2018-09-22T12:20:25.359Z,17.96
2018-09-22T12:22:54.316Z,17.36
2018-09-22T12:25:23.276Z,17.93
2018-09-22T12:27:52.166Z,18.14
2018-09-22T12:30:21.075Z,18.72
2018-09-22T12:32:50.080Z,19.48
2018-09-22T12:35:18.990Z,18.77
2018-09-22T12:37:47.864Z,18.67
2018-09-22T12:40:16.759Z,18.56
2018-09-22T12:42:45.639Z,18.52
2018-09-22T12:45:14.551Z,18.69
2018-09-22T12:47:43.527Z,17.58
2018-09-22T12:50:12.497Z,16.99
2018-09-22T12:52:41.387Z,17.54
2018-09-22T12:55:10.308Z,17.63
2018-09-22T12:57:39.169Z,18.14
2018-09-22T13:00:08.089Z,18.64
2018-09-22T13:02:37.123Z,17.59
2018-09-22T13:05:06.209Z,17.17
2018-09-22T13:07:35.103Z,17.36
2018-09-22T13:10:04.053Z,17.74
2018-09-22T13:12:32.913Z,18.06
2018-09-22T13:15:01.812Z,17.79
2018-09-22T13:17:30.791Z,18.47
2018-09-22T13:19:59.732Z,18.84
2018-09-22T13:22:28.672Z,19.30
2018-09-22T13:24:57.544Z,18.98
2018-09-22T13:27:26.421Z,17.95
2018-09-22T13:29:55.395Z,17.57
2018-09-22T13:32:24.259Z,18.27
2018-09-22T13:34:53.121Z,18.15
2018-09-22T13:37:22.030Z,18.92
2018-09-22T13:39:50.907Z,19.22
2018-09-22T13:42:19.803Z,19.66
2018-09-22T13:44:48.731Z,19.72
2018-09-22T13:47:17.736Z,19.47
2018-09-22T13:49:46.639Z,19.56
2018-09-22T13:52:15.503Z,19.66
2018-09-22T13:54:44.412Z,19.73
2018-09-22T13:57:13.303Z,19.80
2018-09-22T13:59:42.230Z,18.79
2018-09-22T14:02:11.251Z,18.93
2018-09-22T14:04:40.144Z,18.49
2018-09-22T14:07:09.017Z,18.57
2018-09-22T14:09:38.007Z,18.32
2018-09-22T14:12:07.041Z,18.46
2018-09-22T14:14:35.932Z,18.02
2018-09-22T14:17:04.819Z,18.40
2018-09-22T14:19:33.709Z,18.57
2018-09-22T14:22:02.656Z,18.99
2018-09-22T14:24:31.552Z,18.78
2018-09-22T14:27:00.585Z,19.07
2018-09-22T14:29:29.521Z,19.23
2018-09-22T14:31:58.427Z,19.25
2018-09-22T14:34:27.284Z,19.06
2018-09-22T14:36:56.162Z,19.02
2018-09-22T14:39:26.847Z,19.02
2018-09-22T14:41:55.760Z,19.28
2018-09-22T14:44:25.073Z,18.78
2018-09-22T14:46:53.940Z,18.41
2018-09-22T14:49:25.898Z,18.48
2018-09-22T14:51:57.309Z,19.07
2018-09-22T14:54:28.099Z,18.79
2018-09-22T14:56:58.987Z,18.49
2018-09-22T14:59:30.276Z,18.32
2018-09-22T15:01:59.723Z,18.26
2018-09-22T15:04:30.971Z,18.31
2018-09-22T15:07:03.154Z,18.73
2018-09-22T15:09:35.038Z,19.22
2018-09-22T15:12:05.076Z,18.90
2018-09-22T15:14:36.135Z,18.56
2018-09-22T15:17:06.655Z,18.10
2018-09-22T15:19:35.928Z,18.16
2018-09-22T15:22:07.670Z,18.37
2018-09-22T15:24:39.972Z,18.15
2018-09-22T15:27:09.218Z,18.08
2018-09-22T15:29:40.772Z,17.86
2018-09-22T15:32:12.482Z,17.76
2018-09-22T15:34:41.820Z,17.71
2018-09-22T15:37:12.503Z,17.81
2018-09-22T15:39:41.828Z,17.61
2018-09-22T15:42:11.222Z,17.61
2018-09-22T15:44:41.588Z,17.53
2018-09-22T15:47:12.152Z,17.58
2018-09-22T15:49:41.319Z,17.39
2018-09-22T15:52:10.541Z,17.33
2018-09-22T15:54:39.917Z,17.25
2018-09-22T15:57:09.202Z,17.15
2018-09-22T15:59:38.820Z,17.13
2018-09-22T16:02:08.027Z,17.11
2018-09-22T16:04:37.320Z,17.13
2018-09-22T16:07:07.930Z,17.00
2018-09-22T16:09:37.845Z,17.11
2018-09-22T16:12:07.276Z,17.07
2018-09-22T16:14:38.814Z,17.07
2018-09-22T16:17:08.208Z,16.90
2018-09-22T16:19:37.881Z,16.89
2018-09-22T16:22:06.920Z,16.86
2018-09-22T16:24:36.137Z,16.77
2018-09-22T16:27:05.303Z,16.84
2018-09-22T16:29:34.731Z,16.69
2018-09-22T16:32:03.766Z,16.62
2018-09-22T16:34:33.678Z,16.59
2018-09-22T16:37:02.836Z,16.63
2018-09-22T16:39:31.807Z,16.65
2018-09-22T16:42:01.031Z,16.62
2018-09-22T16:44:29.931Z,16.57
2018-09-22T16:46:58.880Z,16.53
2018-09-22T16:49:27.854Z,16.48
2018-09-22T16:51:56.712Z,16.44
2018-09-22T16:54:25.709Z,16.46
2018-09-22T16:56:54.589Z,16.39
2018-09-22T16:59:23.565Z,16.32
2018-09-22T17:01:52.491Z,16.34
2018-09-22T17:04:22.485Z,16.29
2018-09-22T17:06:51.437Z,16.35
2018-09-22T17:09:20.997Z,16.46
2018-09-22T17:11:51.096Z,16.42
2018-09-22T17:14:20.185Z,16.25
2018-09-22T17:16:49.060Z,16.28
2018-09-22T17:19:18.055Z,16.12
2018-09-22T17:21:46.940Z,16.06
2018-09-22T17:24:15.859Z,15.97
2018-09-22T17:26:44.812Z,15.80
2018-09-22T17:29:13.834Z,15.78
2018-09-22T17:31:42.788Z,15.74
2018-09-22T17:34:13.536Z,15.76
2018-09-22T17:36:42.461Z,15.60
2018-09-22T17:39:11.710Z,15.57
2018-09-22T17:41:40.640Z,15.57
2018-09-22T17:44:09.606Z,15.52
2018-09-22T17:46:38.692Z,15.46
2018-09-22T17:49:07.640Z,15.39
2018-09-22T17:51:36.583Z,15.38
2018-09-22T17:54:05.519Z,15.31
2018-09-22T17:56:34.472Z,15.18
2018-09-22T17:59:03.585Z,15.18
2018-09-22T18:01:32.510Z,15.19
2018-09-22T18:04:01.400Z,15.16
2018-09-22T18:06:30.384Z,15.17
2018-09-22T18:08:59.320Z,15.19
2018-09-22T18:11:28.259Z,15.18
2018-09-22T18:13:57.691Z,15.27
2018-09-22T18:16:26.563Z,15.20
2018-09-22T18:18:55.468Z,15.13
2018-09-22T18:21:24.479Z,15.22
2018-09-22T18:23:53.422Z,15.11
2018-09-22T18:26:22.340Z,15.11
2018-09-22T18:28:51.319Z,15.15
2018-09-22T18:31:20.183Z,15.18
2018-09-22T18:33:49.112Z,15.15
2018-09-22T18:36:18.023Z,15.11
2018-09-22T18:38:47.032Z,15.02
2018-09-22T18:41:15.946Z,14.95
2018-09-22T18:43:44.993Z,14.99
2018-09-22T18:46:14.014Z,15.07
2018-09-22T18:48:42.982Z,14.97
2018-09-22T18:51:11.955Z,14.89
2018-09-22T18:53:40.860Z,14.84
2018-09-22T18:56:09.791Z,14.82
2018-09-22T18:58:38.690Z,14.81
2018-09-22T19:01:07.719Z,14.85
2018-09-22T19:03:36.874Z,14.74
2018-09-22T19:06:05.822Z,14.72
2018-09-22T19:08:34.858Z,14.48
2018-09-22T19:11:03.725Z,14.51
2018-09-22T19:13:37.403Z,14.54
2018-09-22T19:16:09.868Z,14.63
2018-09-22T19:18:45.832Z,14.57
2018-09-22T19:21:21.580Z,14.62
2018-09-22T19:23:55.619Z,14.62
2018-09-22T19:26:28.779Z,14.55
2018-09-22T19:29:36.886Z,14.53
2018-09-22T19:32:09.781Z,14.54
2018-09-22T19:34:45.167Z,14.54
2018-09-22T19:37:19.023Z,14.48
2018-09-22T19:39:52.108Z,14.48
2018-09-22T19:42:39.791Z,14.45
2018-09-22T19:45:12.060Z,14.43
2018-09-22T19:47:45.119Z,14.43
2018-09-22T19:50:17.684Z,14.41
2018-09-22T19:52:52.072Z,14.42
2018-09-22T19:55:21.565Z,14.46
2018-09-22T19:57:50.620Z,14.50
2018-09-22T20:00:19.654Z,14.49
2018-09-22T20:02:48.565Z,14.44
2018-09-22T20:05:17.556Z,14.39
2018-09-22T20:07:46.638Z,14.42
2018-09-22T20:10:15.578Z,14.44
2018-09-22T20:12:44.960Z,14.42
2018-09-22T20:15:13.893Z,14.37
2018-09-22T20:17:42.827Z,14.34
2018-09-22T20:20:11.760Z,14.31
2018-09-22T20:22:40.625Z,14.33
2018-09-22T20:25:09.635Z,14.29
2018-09-22T20:27:38.681Z,14.32
2018-09-22T20:30:07.761Z,14.35
2018-09-22T20:32:36.683Z,14.28
2018-09-22T20:35:05.657Z,14.16
2018-09-22T20:37:34.511Z,14.19
2018-09-22T20:40:03.412Z,14.18
2018-09-22T20:42:32.499Z,14.22
2018-09-22T20:45:01.533Z,14.22
2018-09-22T20:47:30.489Z,14.14
2018-09-22T20:49:59.377Z,14.15
2018-09-22T20:52:28.339Z,14.13
2018-09-22T20:54:57.249Z,14.18
2018-09-22T20:57:26.164Z,14.20
2018-09-22T20:59:55.027Z,14.19
2018-09-22T21:02:23.980Z,14.23
2018-09-22T21:04:52.832Z,14.19
2018-09-22T21:07:21.703Z,14.20
2018-09-22T21:09:51.071Z,14.19
2018-09-22T21:12:19.941Z,14.28
2018-09-22T21:14:49.144Z,14.21
2018-09-22T21:17:18.034Z,14.15
2018-09-22T21:19:46.896Z,14.20
2018-09-22T21:22:15.822Z,14.15
2018-09-22T21:24:44.756Z,14.07
2018-09-22T21:27:13.723Z,14.06
2018-09-22T21:29:42.588Z,14.06
2018-09-22T21:32:11.623Z,14.07
2018-09-22T21:34:40.519Z,14.08
2018-09-22T21:37:09.412Z,14.04
2018-09-22T21:39:38.662Z,14.01
2018-09-22T21:42:07.568Z,13.99
2018-09-22T21:44:36.448Z,13.98
2018-09-22T21:47:11.772Z,14.00
2018-09-22T21:49:40.854Z,13.99
2018-09-22T21:52:09.733Z,14.01
2018-09-22T21:54:38.654Z,14.02
2018-09-22T21:57:07.696Z,13.83
2018-09-22T21:59:36.572Z,13.80
2018-09-22T22:02:05.476Z,13.88
2018-09-22T22:04:34.332Z,13.78
2018-09-22T22:07:03.260Z,13.68
2018-09-22T22:09:32.164Z,13.73
2018-09-22T22:12:01.132Z,13.61
2018-09-22T22:14:30.159Z,13.41
2018-09-22T22:16:59.039Z,13.50
2018-09-22T22:19:28.015Z,13.61
2018-09-22T22:21:56.875Z,13.69
2018-09-22T22:24:25.716Z,13.58
2018-09-22T22:26:54.643Z,13.55
2018-09-22T22:29:23.591Z,13.45
2018-09-22T22:31:52.539Z,13.50
2018-09-22T22:34:21.538Z,13.45
2018-09-22T22:36:50.402Z,13.43
2018-09-22T22:39:19.271Z,13.44
2018-09-22T22:41:48.191Z,13.38
2018-09-22T22:44:17.126Z,13.43
2018-09-22T22:46:45.986Z,13.41
2018-09-22T22:49:14.916Z,13.34
2018-09-22T22:51:43.908Z,13.43
2018-09-22T22:54:12.808Z,13.43
2018-09-22T22:56:41.691Z,13.37
2018-09-22T22:59:10.590Z,13.36
2018-09-22T23:01:39.456Z,13.33
2018-09-22T23:04:08.341Z,13.30
2018-09-22T23:06:37.259Z,13.34
2018-09-22T23:09:07.357Z,13.37
2018-09-22T23:11:36.379Z,13.35
2018-09-22T23:14:05.331Z,13.28
2018-09-22T23:16:34.204Z,13.26
2018-09-22T23:19:03.161Z,13.15
2018-09-22T23:21:32.063Z,13.05
2018-09-22T23:24:00.936Z,13.08
2018-09-22T23:26:29.828Z,13.01
2018-09-22T23:28:58.868Z,12.97
2018-09-22T23:31:27.881Z,12.77
2018-09-22T23:33:56.737Z,12.77
2018-09-22T23:36:25.623Z,12.52
2018-09-22T23:38:54.471Z,12.48
2018-09-22T23:41:23.348Z,12.30
2018-09-22T23:43:52.200Z,12.40
2018-09-22T23:46:21.151Z,12.44
2018-09-22T23:48:50.024Z,12.17
2018-09-22T23:51:18.905Z,12.04
2018-09-22T23:53:47.788Z,11.80
2018-09-22T23:56:16.677Z,11.88
2018-09-22T23:58:45.539Z,11.77
